Time;durP1;ratioP1;P1;durP2;ratioP2;P2;SDS_P1;SDS_P2;PMS_P1;PMS_P2;Temp;Humidity;BMP_temperature;BMP_pressure;BME280_temperature;BME280_humidity;BME280_pressure;Samples;Min_cycle;Max_cycle;Signal;HPM_P1;HPM_P2
2023/07/19 00:00:22;;;;;;;4.10;2.70;;;;;;;16.71;100.00;101397.47;5069478;28;20508;-42
2023/07/19 00:02:50;;;;;;;4.40;2.40;;;;;;;16.68;100.00;101400.59;5070644;28;20634;-40
2023/07/19 00:05:18;;;;;;;4.37;2.30;;;;;;;16.69;100.00;101404.94;5069929;28;20432;-41
2023/07/19 00:07:45;;;;;;;4.33;2.90;;;;;;;16.67;100.00;101401.63;5070312;28;20441;-42
2023/07/19 00:10:13;;;;;;;3.03;2.70;;;;;;;16.59;100.00;101402.75;5069009;28;20504;-40
2023/07/19 00:12:41;;;;;;;4.30;3.27;;;;;;;16.60;100.00;101408.97;5069114;28;20512;-44
2023/07/19 00:15:24;;;;;;;5.33;3.10;;;;;;;16.56;100.00;101413.13;5068812;28;20980;-42
2023/07/19 00:17:52;;;;;;;8.63;3.43;;;;;;;16.48;100.00;101416.06;5069929;28;20504;-40
2023/07/19 00:20:20;;;;;;;3.00;2.70;;;;;;;16.44;100.00;101415.66;5069173;28;20458;-40
2023/07/19 00:22:48;;;;;;;3.20;2.70;;;;;;;16.44;100.00;101414.84;5068431;28;20453;-44
2023/07/19 00:25:16;;;;;;;4.20;3.40;;;;;;;16.43;100.00;101416.69;5069001;28;20431;-41
2023/07/19 00:27:45;;;;;;;5.47;3.20;;;;;;;16.43;100.00;101410.50;5068498;28;20442;-42
2023/07/19 00:30:14;;;;;;;3.23;3.03;;;;;;;16.39;100.00;101422.75;5067433;28;20472;-43
2023/07/19 00:32:43;;;;;;;7.40;3.63;;;;;;;16.35;100.00;101425.06;5068179;28;21051;-40
2023/07/19 00:35:11;;;;;;;3.00;2.80;;;;;;;16.35;100.00;101421.53;5068365;28;20422;-41
2023/07/19 00:37:39;;;;;;;4.70;2.97;;;;;;;16.30;100.00;101419.50;5068450;28;20867;-42
2023/07/19 00:40:08;;;;;;;3.97;2.90;;;;;;;16.28;100.00;101420.75;5067407;28;20545;-40
2023/07/19 00:42:35;;;;;;;6.97;3.07;;;;;;;16.16;100.00;101412.53;5067733;28;20457;-43
2023/07/19 00:45:04;;;;;;;3.27;3.07;;;;;;;16.12;100.00;101419.41;5067878;28;20433;-42
2023/07/19 00:47:34;;;;;;;7.73;3.50;;;;;;;16.05;100.00;101422.13;5069001;28;20430;-42
2023/07/19 00:50:04;;;;;;;4.13;3.47;;;;;;;16.08;100.00;101420.06;5066701;28;20466;-41
2023/07/19 00:52:32;;;;;;;3.53;3.23;;;;;;;16.09;100.00;101419.84;5067777;28;20511;-40
2023/07/19 00:55:00;;;;;;;4.17;3.60;;;;;;;16.09;100.00;101419.84;5067178;28;20487;-40
2023/07/19 00:57:28;;;;;;;4.00;3.70;;;;;;;16.04;100.00;101420.47;5068096;28;20434;-41
2023/07/19 00:59:56;;;;;;;4.30;3.90;;;;;;;16.00;100.00;101418.44;5066542;28;20494;-42
2023/07/19 01:02:24;;;;;;;4.43;4.13;;;;;;;15.97;100.00;101408.13;5067992;28;20823;-39
2023/07/19 01:04:52;;;;;;;4.53;4.13;;;;;;;15.99;100.00;101417.63;5068266;28;20433;-40
2023/07/19 01:07:21;;;;;;;4.90;4.50;;;;;;;15.98;100.00;101410.59;5067616;28;20426;-41
2023/07/19 01:09:50;;;;;;;4.67;3.83;;;;;;;16.01;100.00;101399.38;5066928;28;20458;-43
2023/07/19 01:12:19;;;;;;;4.90;4.43;;;;;;;16.10;100.00;101401.84;5068048;28;20450;-40
2023/07/19 01:14:47;;;;;;;5.83;5.00;;;;;;;16.13;100.00;101388.75;5068325;28;20426;-41
2023/07/19 01:17:14;;;;;;;4.33;4.03;;;;;;;16.16;100.00;101387.53;5068588;28;20473;-42
2023/07/19 01:19:42;;;;;;;10.93;5.43;;;;;;;16.18;100.00;101385.44;5066355;28;20469;-41
2023/07/19 01:22:10;;;;;;;4.97;4.57;;;;;;;16.17;100.00;101386.47;5067960;28;20446;-40
2023/07/19 01:24:41;;;;;;;4.03;3.80;;;;;;;16.16;100.00;101390.22;5068441;28;20924;-41
2023/07/19 01:27:09;;;;;;;4.87;4.57;;;;;;;16.19;100.00;101389.78;5067879;28;20422;-41
2023/07/19 01:29:50;;;;;;;5.00;4.47;;;;;;;16.17;100.00;101381.09;5066844;28;20519;-44
2023/07/19 01:32:18;;;;;;;5.20;4.77;;;;;;;16.16;100.00;101388.31;5067599;28;20994;-41
2023/07/19 01:34:45;;;;;;;5.77;5.40;;;;;;;16.16;100.00;101384.84;5067883;28;20518;-41
2023/07/19 01:37:13;;;;;;;4.73;4.33;;;;;;;16.15;100.00;101383.16;5068374;28;20516;-41
2023/07/19 01:39:42;;;;;;;5.73;5.33;;;;;;;16.13;100.00;101387.97;5066625;28;20465;-39
2023/07/19 01:42:10;;;;;;;6.20;5.60;;;;;;;16.10;100.00;101383.00;5067424;28;20454;-39
2023/07/19 01:44:38;;;;;;;5.70;5.17;;;;;;;16.07;100.00;101380.75;5067746;28;20426;-40
2023/07/19 01:47:06;;;;;;;5.57;5.07;;;;;;;16.03;100.00;101373.13;5068438;28;20427;-41
2023/07/19 01:49:33;;;;;;;6.37;5.17;;;;;;;16.02;100.00;101371.47;5067113;28;20995;-41
2023/07/19 01:52:01;;;;;;;5.13;4.73;;;;;;;15.99;100.00;101363.00;5067364;28;20540;-39
2023/07/19 01:54:29;;;;;;;5.07;4.67;;;;;;;15.96;100.00;101356.19;5067593;28;20434;-40
2023/07/19 01:56:59;;;;;;;5.77;5.27;;;;;;;15.95;100.00;101341.06;5068707;28;20430;-45
2023/07/19 01:59:27;;;;;;;5.83;5.30;;;;;;;15.86;100.00;101320.06;5067921;28;20466;-40
2023/07/19 02:01:54;;;;;;;6.77;5.50;;;;;;;15.79;100.00;101312.03;5068173;28;20466;-40
2023/07/19 02:04:23;;;;;;;5.50;5.10;;;;;;;15.78;100.00;101323.81;5067861;28;20434;-40
2023/07/19 02:06:50;;;;;;;6.37;5.77;;;;;;;15.78;100.00;101323.81;5070822;28;20425;-40
2023/07/19 02:09:18;;;;;;;5.90;5.50;;;;;;;15.79;100.00;101328.16;5070573;28;20472;-42
2023/07/19 02:11:46;;;;;;;6.37;5.67;;;;;;;15.79;100.00;101328.16;5070901;28;20434;-41
2023/07/19 02:14:15;;;;;;;6.23;5.73;;;;;;;15.80;100.00;101326.31;5070814;28;20430;-41
2023/07/19 02:16:43;;;;;;;5.60;5.30;;;;;;;15.82;100.00;101330.41;5071920;28;20472;-40
2023/07/19 02:19:11;;;;;;;6.33;5.90;;;;;;;15.81;100.00;101326.06;5069617;28;20543;-43
2023/07/19 02:21:38;;;;;;;6.90;6.50;;;;;;;15.81;100.00;101314.47;5070966;28;20436;-39
2023/07/19 02:24:06;;;;;;;6.57;6.07;;;;;;;15.79;100.00;101330.84;5071247;28;20472;-42
2023/07/19 02:26:34;;;;;;;6.70;6.30;;;;;;;15.76;100.00;101315.16;5071789;28;20418;-42
2023/07/19 02:29:02;;;;;;;7.93;7.43;;;;;;;15.76;100.00;101322.38;5070857;28;20867;-40
2023/07/19 02:31:31;;;;;;;7.27;6.97;;;;;;;15.75;100.00;101324.25;5071514;28;20525;-42
2023/07/19 02:33:59;;;;;;;7.50;7.00;;;;;;;15.73;100.00;101320.97;5070894;28;20511;-42
2023/07/19 02:36:27;;;;;;;7.77;6.80;;;;;;;15.72;100.00;101313.91;5070998;28;20517;-40
2023/07/19 02:38:54;;;;;;;7.80;7.23;;;;;;;15.70;100.00;101317.88;5070048;28;20458;-39
2023/07/19 02:41:22;;;;;;;8.00;7.47;;;;;;;15.67;100.00;101316.44;5070369;28;20521;-42
2023/07/19 02:43:50;;;;;;;8.03;7.37;;;;;;;15.69;100.00;101327.78;5070737;28;20447;-45
2023/07/19 02:46:18;;;;;;;8.30;7.80;;;;;;;15.67;100.00;101318.31;5071162;28;20431;-41
2023/07/19 02:48:47;;;;;;;7.67;7.27;;;;;;;15.67;100.00;101324.50;5069937;28;20536;-40
2023/07/19 02:51:15;;;;;;;8.93;7.97;;;;;;;15.66;100.00;101324.72;5067253;28;20500;-39
2023/07/19 02:53:43;;;;;;;8.23;7.73;;;;;;;15.66;100.00;101328.22;5067659;28;20461;-40
2023/07/19 02:56:10;;;;;;;8.07;7.60;;;;;;;15.68;100.00;101333.41;5067720;28;21011;-39
2023/07/19 02:58:38;;;;;;;9.43;8.73;;;;;;;15.68;100.00;101334.19;5069914;28;20898;-40
2023/07/19 03:01:06;;;;;;;8.37;7.83;;;;;;;15.68;100.00;101333.41;5070053;28;20480;-41
2023/07/19 03:03:34;;;;;;;7.60;7.10;;;;;;;15.66;100.00;101330.09;5069990;28;20538;-40
2023/07/19 03:06:03;;;;;;;7.87;7.37;;;;;;;15.66;100.00;101330.91;5069797;28;20530;-40
2023/07/19 03:08:31;;;;;;;9.40;8.70;;;;;;;15.66;100.00;101325.53;5069994;28;20499;-39
2023/07/19 03:10:59;;;;;;;8.73;8.30;;;;;;;15.66;100.00;101330.91;5069389;28;20427;-42
2023/07/19 03:13:27;;;;;;;9.33;8.50;;;;;;;15.65;100.00;101336.53;5069748;28;20442;-40
2023/07/19 03:15:55;;;;;;;9.97;9.20;;;;;;;15.64;100.00;101346.44;5069447;28;20426;-42
2023/07/19 03:18:22;;;;;;;9.90;9.10;;;;;;;15.65;100.00;101337.31;5068563;28;20426;-39
2023/07/19 03:20:57;;;;;;;8.37;7.63;;;;;;;15.63;100.00;101336.72;5069086;28;20835;-40
2023/07/19 03:23:27;;;;;;;9.00;8.20;;;;;;;15.62;100.00;101335.06;5070022;28;20450;-41
2023/07/19 03:25:57;;;;;;;9.47;8.77;;;;;;;15.62;100.00;101328.88;5070460;28;20492;-41
2023/07/19 03:28:26;;;;;;;9.00;8.50;;;;;;;15.60;100.00;101329.09;5070619;28;20487;-40
2023/07/19 03:30:54;;;;;;;9.80;8.97;;;;;;;15.61;100.00;101324.53;5069225;28;20461;-43
2023/07/19 03:33:22;;;;;;;9.73;9.20;;;;;;;15.60;100.00;101321.03;5071187;28;20450;-43
2023/07/19 03:35:51;;;;;;;9.37;8.77;;;;;;;15.60;100.00;101331.78;5070741;28;20817;-40
2023/07/19 03:38:19;;;;;;;9.87;9.27;;;;;;;15.63;100.00;101327.81;5069760;28;20461;-39
2023/07/19 03:40:48;;;;;;;10.73;9.83;;;;;;;15.60;100.00;101323.72;5069190;28;20484;-42
2023/07/19 03:43:16;;;;;;;9.93;9.27;;;;;;;15.60;100.00;101314.81;5069860;28;20454;-39
2023/07/19 03:45:44;;;;;;;9.53;9.13;;;;;;;15.61;100.00;101325.38;5071185;28;20466;-44
2023/07/19 03:48:11;;;;;;;10.97;10.17;;;;;;;15.62;100.00;101324.31;5069802;28;20430;-40
2023/07/19 03:50:39;;;;;;;11.67;10.67;;;;;;;15.63;100.00;101322.44;5069155;28;20972;-44
2023/07/19 03:53:07;;;;;;;9.83;9.17;;;;;;;15.65;100.00;101318.50;5069216;28;20449;-43
2023/07/19 03:55:34;;;;;;;10.07;9.20;;;;;;;15.69;100.00;101319.72;5069526;28;20931;-40
2023/07/19 03:58:03;;;;;;;11.40;10.43;;;;;;;15.73;100.00;101317.44;5069060;28;20538;-42
2023/07/19 04:00:31;;;;;;;9.90;9.10;;;;;;;15.73;100.00;101323.66;5068991;28;20547;-42
2023/07/19 04:02:59;;;;;;;9.83;8.97;;;;;;;15.74;100.00;101306.44;5069532;28;20454;-43
2023/07/19 04:05:27;;;;;;;10.30;9.57;;;;;;;15.75;100.00;101316.19;5068742;28;20426;-40
2023/07/19 04:07:55;;;;;;;9.67;9.07;;;;;;;15.75;100.00;101309.97;5068791;28;20442;-40
2023/07/19 04:10:22;;;;;;;11.77;10.90;;;;;;;15.79;100.00;101317.41;5068521;28;20459;-41
2023/07/19 04:12:50;;;;;;;10.60;9.47;;;;;;;15.82;100.00;101316.13;5068927;28;20454;-44
2023/07/19 04:15:19;;;;;;;9.57;8.77;;;;;;;15.90;100.00;101321.25;5069364;28;20431;-40
2023/07/19 04:17:47;;;;;;;9.57;8.90;;;;;;;15.94;100.00;101315.22;5070732;28;20441;-41
2023/07/19 04:20:15;;;;;;;9.87;9.03;;;;;;;16.02;100.00;101316.81;5068861;28;20482;-40
2023/07/19 04:22:43;;;;;;;9.87;9.27;;;;;;;16.07;100.00;101310.81;5067898;28;20461;-40
2023/07/19 04:25:11;;;;;;;10.47;9.70;;;;;;;16.10;100.00;101311.16;5067872;28;20430;-41
2023/07/19 04:27:38;;;;;;;9.50;8.80;;;;;;;16.14;100.00;101298.94;5068226;28;20434;-39
2023/07/19 04:30:08;;;;;;;10.63;10.07;;;;;;;16.18;100.00;101300.16;5067686;28;20458;-41
2023/07/19 04:32:37;;;;;;;11.23;10.33;;;;;;;16.24;100.00;101303.81;5068464;28;20462;-41
2023/07/19 04:35:06;;;;;;;9.83;9.30;;;;;;;16.29;100.00;101303.97;5068135;28;20434;-40
2023/07/19 04:37:34;;;;;;;11.17;10.37;;;;;;;16.29;100.00;101301.28;5067856;28;20528;-40
2023/07/19 04:40:01;;;;;;;9.60;8.90;;;;;;;16.33;100.00;101302.50;5067738;28;20458;-41
2023/07/19 04:42:29;;;;;;;8.90;8.40;;;;;;;16.29;100.00;101298.59;5067793;28;20537;-42
2023/07/19 04:44:57;;;;;;;9.10;8.60;;;;;;;16.29;100.00;101293.22;5067751;28;20438;-40
2023/07/19 04:47:25;;;;;;;10.23;9.30;;;;;;;16.27;100.00;101300.69;5068480;28;20454;-41
2023/07/19 04:49:54;;;;;;;9.23;8.60;;;;;;;16.29;100.00;101293.22;5067972;28;20827;-39
2023/07/19 04:52:22;;;;;;;9.17;8.50;;;;;;;16.32;100.00;101290.09;5067861;28;21216;-41
2023/07/19 04:54:49;;;;;;;10.70;9.53;;;;;;;16.36;100.00;101284.06;5067514;28;20438;-40
2023/07/19 04:57:17;;;;;;;8.80;8.20;;;;;;;16.39;100.00;101294.38;5067623;28;20458;-41
2023/07/19 04:59:45;;;;;;;8.70;8.30;;;;;;;16.46;100.00;101296.97;5067755;28;20461;-40
2023/07/19 05:02:14;;;;;;;9.43;8.77;;;;;;;16.51;100.00;101286.41;5067855;28;20919;-43
2023/07/19 05:04:41;;;;;;;9.83;9.13;;;;;;;16.54;100.00;101291.38;5067327;28;20430;-43
2023/07/19 05:07:10;;;;;;;9.67;9.07;;;;;;;16.61;100.00;101288.63;5067616;28;20426;-41
2023/07/19 05:09:38;;;;;;;9.60;9.10;;;;;;;16.66;100.00;101288.75;5067343;28;20466;-41
2023/07/19 05:12:07;;;;;;;10.80;10.10;;;;;;;16.76;100.00;101291.75;5067442;28;20493;-39
2023/07/19 05:14:35;;;;;;;10.10;9.50;;;;;;;16.86;100.00;101290.19;5067655;28;20994;-40
2023/07/19 05:17:03;;;;;;;10.53;9.83;;;;;;;16.95;100.00;101288.84;5068305;28;20469;-40
2023/07/19 05:19:30;;;;;;;11.00;10.30;;;;;;;17.02;100.00;101288.78;5067009;28;20971;-41
2023/07/19 05:21:58;;;;;;;10.23;9.73;;;;;;;17.09;100.00;101294.88;5067150;28;20535;-41
2023/07/19 05:24:28;;;;;;;9.97;9.43;;;;;;;17.20;100.00;101293.31;5067593;28;20466;-40
2023/07/19 05:26:56;;;;;;;10.87;10.07;;;;;;;17.33;100.00;101290.44;5067811;28;20843;-41
2023/07/19 05:29:24;;;;;;;10.77;10.20;;;;;;;17.51;100.00;101293.94;5067175;28;20464;-41
2023/07/19 05:31:51;;;;;;;10.60;9.90;;;;;;;17.73;100.00;101286.19;5067836;28;20501;-39
2023/07/19 05:34:19;;;;;;;9.60;9.10;;;;;;;17.95;100.00;101279.19;5067948;28;20484;-40
2023/07/19 05:36:47;;;;;;;10.30;9.80;;;;;;;18.38;100.00;101275.34;5067846;28;20525;-39
2023/07/19 05:39:15;;;;;;;10.23;9.60;;;;;;;18.55;100.00;101274.44;5067296;28;21207;-40
2023/07/19 05:41:44;;;;;;;9.97;9.00;;;;;;;18.73;100.00;101265.38;5070130;28;20497;-42
2023/07/19 05:44:11;;;;;;;9.80;9.17;;;;;;;18.88;100.00;101262.16;5071416;28;20440;-39
2023/07/19 05:46:40;;;;;;;9.10;8.67;;;;;;;19.02;100.00;101267.09;5072077;28;20438;-41
2023/07/19 05:49:07;;;;;;;9.40;8.80;;;;;;;19.09;100.00;101256.13;5070997;28;20457;-40
2023/07/19 05:51:36;;;;;;;9.20;8.60;;;;;;;19.23;100.00;101252.88;5071018;28;20426;-41
2023/07/19 05:54:04;;;;;;;9.20;8.50;;;;;;;19.33;100.00;101254.97;5071635;28;20433;-41
2023/07/19 05:56:32;;;;;;;8.13;7.70;;;;;;;19.59;100.00;101251.69;5071349;28;20421;-42
2023/07/19 05:59:01;;;;;;;8.37;7.87;;;;;;;19.89;100.00;101248.72;5070899;28;20932;-41
2023/07/19 06:01:29;;;;;;;8.50;7.80;;;;;;;20.26;100.00;101251.75;5071541;28;20860;-43
2023/07/19 06:04:01;;;;;;;8.13;7.53;;;;;;;20.74;100.00;101243.78;5071136;28;20453;-41
2023/07/19 06:06:29;;;;;;;6.80;6.50;;;;;;;20.90;100.00;101242.91;5070948;28;20430;-41
2023/07/19 06:08:57;;;;;;;6.47;6.17;;;;;;;20.99;100.00;101240.56;5069996;28;20488;-41
2023/07/19 06:11:25;;;;;;;6.03;5.47;;;;;;;20.83;100.00;101233.31;5070550;28;20506;-41
2023/07/19 06:13:53;;;;;;;5.70;5.40;;;;;;;20.69;100.00;101223.94;5071079;28;20519;-41
2023/07/19 06:16:22;;;;;;;5.33;4.90;;;;;;;20.51;100.00;101225.06;5071798;28;20429;-40
2023/07/19 06:18:50;;;;;;;5.07;4.70;;;;;;;20.36;100.00;101227.53;5070312;28;20520;-40
2023/07/19 06:21:19;;;;;;;7.00;5.00;;;;;;;20.14;100.00;101232.03;5070744;28;20848;-41
2023/07/19 06:23:47;;;;;;;4.90;4.50;;;;;;;19.90;100.00;101225.97;5070253;28;20472;-41
2023/07/19 06:26:15;;;;;;;5.60;5.17;;;;;;;19.73;100.00;101231.41;5070711;28;20457;-40
2023/07/19 06:28:43;;;;;;;4.83;4.57;;;;;;;19.58;100.00;101224.91;5069788;28;20430;-42
2023/07/19 06:31:10;;;;;;;8.00;4.80;;;;;;;19.39;100.00;101227.00;5071153;28;20442;-41
2023/07/19 06:33:40;;;;;;;5.43;5.03;;;;;;;19.32;100.00;101229.81;5069937;28;20449;-44
2023/07/19 06:36:07;;;;;;;5.20;4.90;;;;;;;19.32;100.00;101229.81;5069945;28;20426;-43
2023/07/19 06:38:36;;;;;;;5.43;5.13;;;;;;;19.42;100.00;101225.69;5069863;28;20442;-40
2023/07/19 06:41:05;;;;;;;4.90;4.57;;;;;;;19.61;100.00;101227.13;5070061;28;20437;-42
2023/07/19 06:43:33;;;;;;;10.90;4.87;;;;;;;19.76;100.00;101222.81;5070143;28;20453;-41
2023/07/19 06:46:00;;;;;;;5.73;4.93;;;;;;;19.87;100.00;101221.06;5070637;28;20932;-41
2023/07/19 06:48:28;;;;;;;5.83;4.70;;;;;;;20.05;100.00;101223.53;5070048;28;20515;-40
2023/07/19 06:50:57;;;;;;;6.00;5.60;;;;;;;20.32;100.00;101227.22;5070634;28;21344;-43
2023/07/19 06:53:25;;;;;;;5.90;5.23;;;;;;;20.41;100.00;101216.78;5070067;28;20486;-42
2023/07/19 06:55:58;;;;;;;5.40;5.10;;;;;;;20.35;100.00;101218.59;5070405;28;20465;-43
2023/07/19 06:58:26;;;;;;;5.63;4.50;;;;;;;20.53;100.00;101219.38;5071044;28;20438;-41
2023/07/19 07:00:55;;;;;;;5.20;4.80;;;;;;;20.62;100.00;101223.28;5069338;28;20468;-40
2023/07/19 07:03:24;;;;;;;4.03;3.83;;;;;;;20.46;100.00;101222.25;5069460;28;20472;-41
2023/07/19 07:05:52;;;;;;;4.30;4.00;;;;;;;20.43;100.00;101222.75;5070926;28;20513;-42
2023/07/19 07:08:23;;;;;;;4.00;3.73;;;;;;;20.28;100.00;101233.41;5069686;28;20446;-41
2023/07/19 07:10:51;;;;;;;4.13;3.80;;;;;;;20.17;100.00;101226.97;5069804;28;20458;-41
2023/07/19 07:13:19;;;;;;;3.90;3.67;;;;;;;20.09;100.00;101223.84;5069447;28;20449;-41
2023/07/19 07:15:47;;;;;;;3.80;3.60;;;;;;;20.10;100.00;101220.88;5070152;28;20422;-40
2023/07/19 07:18:14;;;;;;;4.10;3.80;;;;;;;20.10;100.00;101223.59;5069842;28;20984;-41
2023/07/19 07:20:42;;;;;;;10.93;4.47;;;;;;;20.01;100.00;101224.28;5070577;28;20488;-41
2023/07/19 07:23:10;;;;;;;7.57;4.90;;;;;;;19.98;100.00;101228.28;5070780;28;20551;-40
2023/07/19 07:25:39;;;;;;;4.50;4.20;;;;;;;19.98;100.00;101219.34;5071067;28;20434;-41
2023/07/19 07:28:07;;;;;;;4.87;4.57;;;;;;;19.98;100.00;101227.47;5070082;28;20438;-40
2023/07/19 07:30:36;;;;;;;6.37;4.63;;;;;;;20.03;100.00;101224.84;5070670;28;20548;-40
2023/07/19 07:33:03;;;;;;;4.87;4.47;;;;;;;20.06;100.00;101218.94;5071298;28;20446;-40
2023/07/19 07:35:31;;;;;;;8.53;4.70;;;;;;;20.19;100.00;101229.44;5071211;28;20436;-42
2023/07/19 07:37:59;;;;;;;5.57;4.30;;;;;;;20.24;100.00;101229.50;5070360;28;20433;-41
2023/07/19 07:40:27;;;;;;;5.33;4.83;;;;;;;20.37;100.00;101221.88;5070364;28;20492;-44
2023/07/19 07:42:56;;;;;;;5.13;4.63;;;;;;;20.61;100.00;101217.03;5069771;28;20506;-42
2023/07/19 07:45:24;;;;;;;4.80;4.40;;;;;;;20.73;100.00;101212.31;5070704;28;20996;-43
2023/07/19 07:47:52;;;;;;;3.93;3.70;;;;;;;20.68;100.00;101211.44;5071244;28;20433;-40
2023/07/19 07:50:22;;;;;;;4.30;3.90;;;;;;;20.71;100.00;101210.94;5070133;28;20462;-41
2023/07/19 07:52:50;;;;;;;4.33;4.00;;;;;;;20.80;100.00;101212.97;5070225;28;21054;-40
2023/07/19 07:55:36;;;;;;;4.50;4.20;;;;;;;20.84;100.00;101214.09;5070786;28;20480;-41
2023/07/19 07:58:05;;;;;;;4.37;4.00;;;;;;;20.83;100.00;101204.31;5070207;28;20868;-41
2023/07/19 08:00:32;;;;;;;4.20;4.00;;;;;;;20.69;100.00;101202.25;5070333;28;20540;-43
2023/07/19 08:03:00;;;;;;;4.17;3.90;;;;;;;20.64;100.00;101207.63;5069552;28;20983;-40
2023/07/19 08:05:29;;;;;;;4.67;4.27;;;;;;;20.65;100.00;101207.34;5070789;28;20466;-42
2023/07/19 08:07:56;;;;;;;4.40;4.10;;;;;;;20.60;100.00;101196.44;5069994;28;20811;-41
2023/07/19 08:10:24;;;;;;;4.83;4.50;;;;;;;20.59;100.00;101193.97;5069856;28;20851;-42
2023/07/19 08:12:52;;;;;;;4.33;4.03;;;;;;;20.62;100.00;101198.91;5069301;28;20450;-40
2023/07/19 08:15:23;;;;;;;3.73;3.60;;;;;;;20.67;100.00;101198.97;5070296;28;20433;-41
2023/07/19 08:17:51;;;;;;;3.47;3.27;;;;;;;20.67;100.00;101196.28;5070796;28;20525;-40
2023/07/19 08:20:18;;;;;;;3.87;3.67;;;;;;;20.71;100.00;101200.91;5069481;28;20884;-42
2023/07/19 08:22:47;;;;;;;3.97;3.60;;;;;;;20.83;100.00;101208.91;5069785;28;20470;-40
2023/07/19 08:25:16;;;;;;;3.63;3.43;;;;;;;20.91;100.00;101206.59;5069619;28;20445;-40
2023/07/19 08:27:54;;;;;;;5.20;4.27;;;;;;;20.98;100.00;101188.22;5069584;28;20870;-41
2023/07/19 08:30:24;;;;;;;3.57;3.37;;;;;;;20.87;100.00;101202.75;5069760;28;20827;-41
2023/07/19 08:32:52;;;;;;;4.13;3.30;;;;;;;20.81;100.00;101200.22;5070019;28;20828;-41
2023/07/19 08:35:20;;;;;;;4.23;3.93;;;;;;;20.72;100.00;101201.75;5069598;28;20478;-41
2023/07/19 08:37:48;;;;;;;3.87;3.57;;;;;;;20.71;100.00;101197.38;5069251;28;20491;-40
2023/07/19 08:40:17;;;;;;;3.50;3.30;;;;;;;20.61;100.00;101202.69;5060489;28;20466;-38
2023/07/19 08:42:46;;;;;;;3.50;3.30;;;;;;;20.34;100.00;101192.56;5051619;28;20485;-40
2023/07/19 08:45:14;;;;;;;3.57;3.23;;;;;;;20.26;100.00;101189.47;5066218;28;20519;-42
2023/07/19 08:47:45;;;;;;;3.77;3.40;;;;;;;20.12;100.00;101199.81;5066490;28;20432;-43
2023/07/19 08:50:14;;;;;;;4.20;3.90;;;;;;;20.09;100.00;101205.72;5065785;28;20487;-42
2023/07/19 08:52:42;;;;;;;4.57;4.17;;;;;;;20.14;100.00;101205.78;5067032;28;20441;-41
2023/07/19 08:55:10;;;;;;;4.73;4.40;;;;;;;20.16;100.00;101202.84;5068588;28;20843;-42
2023/07/19 08:57:44;;;;;;;3.63;3.53;;;;;;;20.12;100.00;101197.09;5067222;28;20481;-42
2023/07/19 09:00:16;;;;;;;3.60;3.40;;;;;;;20.24;100.00;101207.84;5066325;28;20883;-41
2023/07/19 09:02:45;;;;;;;5.10;4.60;;;;;;;20.27;100.00;101208.19;5067685;28;21083;-39
2023/07/19 09:05:14;;;;;;;4.70;4.27;;;;;;;20.46;100.00;101203.28;5067004;28;20426;-41
2023/07/19 09:07:42;;;;;;;4.70;4.30;;;;;;;20.60;100.00;101204.59;5067471;28;20460;-41
2023/07/19 09:10:10;;;;;;;4.57;4.13;;;;;;;20.76;100.00;101217.25;5066903;28;21019;-41
2023/07/19 09:12:39;;;;;;;4.50;4.10;;;;;;;21.11;100.00;101210.63;5067323;28;20441;-41
2023/07/19 09:15:08;;;;;;;4.43;4.17;;;;;;;21.43;100.00;101200.66;5066842;28;20448;-42
2023/07/19 09:17:37;;;;;;;4.27;3.90;;;;;;;21.58;100.00;101211.66;5070650;28;20421;-42
2023/07/19 09:20:08;;;;;;;4.93;3.93;;;;;;;21.38;100.00;101204.16;5070086;28;21028;-41
2023/07/19 09:22:37;;;;;;;4.00;3.37;;;;;;;21.24;100.00;101204.78;5070259;28;20446;-41
2023/07/19 09:25:06;;;;;;;4.37;4.00;;;;;;;21.32;100.00;101201.63;5069655;28;20426;-40
2023/07/19 09:27:34;;;;;;;4.40;4.20;;;;;;;21.41;100.00;101198.19;5071127;28;20773;-41
2023/07/19 09:30:03;;;;;;;4.00;3.70;;;;;;;21.39;100.00;101192.22;5070495;28;20515;-40
2023/07/19 09:32:31;;;;;;;5.33;4.20;;;;;;;21.23;100.00;101195.03;5072136;28;20492;-41
2023/07/19 09:35:05;;;;;;;4.03;3.83;;;;;;;21.24;100.00;101191.22;5070898;28;20466;-45
2023/07/19 09:37:34;;;;;;;4.20;3.90;;;;;;;21.26;100.00;101180.97;5061233;28;20444;-43
2023/07/19 09:40:04;;;;;;;4.60;3.80;;;;;;;21.32;100.00;101183.47;5071002;28;20492;-41
2023/07/19 09:42:36;;;;;;;5.10;4.63;;;;;;;21.45;100.00;101179.50;5071033;28;20457;-40
2023/07/19 09:45:06;;;;;;;4.17;3.97;;;;;;;21.37;100.00;101182.69;5072130;28;20429;-41
2023/07/19 09:47:34;;;;;;;4.00;3.80;;;;;;;21.24;100.00;101186.63;5073067;28;20433;-41
2023/07/19 09:50:06;;;;;;;4.17;3.87;;;;;;;21.14;100.00;101191.16;5071915;28;20569;-40
2023/07/19 09:52:38;;;;;;;4.60;4.30;;;;;;;21.11;100.00;101195.19;5072408;28;20499;-41
2023/07/19 09:55:06;;;;;;;4.20;3.90;;;;;;;20.97;100.00;101189.28;5072147;28;20436;-40
2023/07/19 09:57:36;;;;;;;3.93;3.73;;;;;;;20.83;100.00;101198.91;5072211;28;20971;-41
2023/07/19 10:00:05;;;;;;;3.73;3.63;;;;;;;20.73;100.00;101187.09;5071788;28;20951;-43
2023/07/19 10:02:33;;;;;;;4.80;3.90;;;;;;;20.68;100.00;101190.59;5072546;28;20823;-43
2023/07/19 10:05:08;;;;;;;4.00;3.80;;;;;;;20.46;100.00;101197.06;5072059;28;20466;-41
2023/07/19 10:07:37;;;;;;;5.27;4.90;;;;;;;20.39;100.00;101194.53;5061970;28;20476;-40
2023/07/19 10:10:19;;;;;;;4.97;4.57;;;;;;;20.20;100.00;101201.25;5071411;28;20467;-43
2023/07/19 10:12:48;;;;;;;4.20;3.97;;;;;;;19.97;100.00;101202.28;5071478;28;20769;-42
2023/07/19 10:15:18;;;;;;;6.00;5.50;;;;;;;19.80;100.00;101196.88;5072373;28;20422;-42
2023/07/19 10:17:56;;;;;;;4.60;4.33;;;;;;;19.64;100.00;101192.28;5072661;28;20437;-41
2023/07/19 10:20:28;;;;;;;4.30;3.90;;;;;;;19.52;100.00;101204.25;5071227;28;20889;-43
2023/07/19 10:22:59;;;;;;;4.40;4.00;;;;;;;19.54;100.00;101202.94;5071881;28;20457;-47
2023/07/19 10:25:28;;;;;;;4.10;3.90;;;;;;;19.47;100.00;101201.44;5071483;28;20436;-41
2023/07/19 10:28:04;;;;;;;4.20;4.00;;;;;;;19.45;100.00;101195.44;5071561;28;20812;-42
2023/07/19 10:30:49;;;;;;;4.90;4.10;;;;;;;19.42;100.00;101198.63;5071251;28;20488;-40
2023/07/19 10:33:20;;;;;;;4.67;4.37;;;;;;;19.42;100.00;101195.94;5071508;28;20442;-43
2023/07/19 10:35:50;;;;;;;5.50;5.20;;;;;;;19.38;100.00;101192.06;5071684;28;20430;-41
2023/07/19 10:38:21;;;;;;;4.90;4.50;;;;;;;19.49;100.00;101193.91;5072205;28;20854;-41
2023/07/19 10:40:58;;;;;;;5.33;4.83;;;;;;;19.53;100.00;101197.78;5070961;28;20990;-40
2023/07/19 10:43:27;;;;;;;4.23;3.93;;;;;;;19.57;100.00;101199.72;5070771;28;20449;-41
2023/07/19 10:46:15;;;;;;;3.77;3.47;;;;;;;19.67;100.00;101199.09;5072030;28;20462;-41
2023/07/19 10:48:43;;;;;;;4.50;4.10;;;;;;;19.73;100.00;101192.69;5071449;28;20436;-46
2023/07/19 10:51:11;;;;;;;4.77;4.33;;;;;;;19.84;100.00;101198.03;5071156;28;20438;-41
2023/07/19 10:53:45;;;;;;;7.03;3.93;;;;;;;19.93;100.00;101195.72;5070812;28;20446;-47
2023/07/19 10:56:14;;;;;;;5.17;4.70;;;;;;;20.08;100.00;101192.41;5071330;28;20437;-40
2023/07/19 10:58:43;;;;;;;5.63;5.23;;;;;;;20.27;100.00;101191.13;5070693;28;20437;-41
2023/07/19 11:01:11;;;;;;;4.80;4.50;;;;;;;20.47;100.00;101182.44;5071912;28;20438;-41
2023/07/19 11:03:42;;;;;;;4.97;4.67;;;;;;;20.59;100.00;101191.28;5068976;28;20474;-43
2023/07/19 11:06:10;;;;;;;5.53;5.23;;;;;;;20.65;100.00;101185.66;5069871;28;20437;-42
2023/07/19 11:08:38;;;;;;;4.83;4.63;;;;;;;20.71;100.00;101186.53;5069598;28;20423;-42
2023/07/19 11:11:10;;;;;;;4.60;4.40;;;;;;;20.69;100.00;101181.38;5068334;28;20514;-41
2023/07/19 11:13:38;;;;;;;4.20;3.90;;;;;;;20.78;100.00;101185.28;5068403;28;20457;-42
2023/07/19 11:16:06;;;;;;;5.07;4.67;;;;;;;20.84;100.00;101187.00;5069029;28;21026;-40
2023/07/19 11:18:37;;;;;;;4.80;4.50;;;;;;;21.03;100.00;101184.75;5068107;28;20430;-42
2023/07/19 11:21:06;;;;;;;4.00;3.70;;;;;;;21.08;100.00;101189.41;5068126;28;20445;-43
2023/07/19 11:23:41;;;;;;;4.30;3.90;;;;;;;21.17;100.00;101185.22;5067625;28;21100;-44